Terminal Aerodrome Forecast
Issued by NWS Rapid City, SD

Home | Current Version | Previous Version | Graphics & Text | Print | Product List | Glossary On
Versions: 1 2 3 4 5 6 7 8 9 10 11 12 13 14 15
000
FTUS43 KUNR 230520
TAFRAP
TAF
KRAP 230520Z 2306/2406 34008KT P6SM SCT150
     FM231400 VRB05KT P6SM BKN150
     FM232200 13009KT P6SM SCT020 BKN070=

USA.gov is the U.S. government's official web portal to all federal, state and local government web resources and services.